首页
METAR-TAF:

METAR-TAF

机场 :

Buochs, 瑞士

纬度: 46-58-28N, 经度: 8-23-49E, 海拔: 449米

当前天气观测

该预报发布于34分钟前的19:20 UTC
风速3节,风向南转西南
温度 2°C
湿度 80%
气压 1022 hPa
能见度10公里或以上
阴天层高于3000英尺

METAR: LSZC 301920Z AUTO 20003KT 9999 OVC030 02/M01 Q1022

时间: 21:54 (19:54 UTC)

预报

该预报发布于5小时和29分钟前的14:25 UTC
预报有效从30日的 15点(UTC)到 30日的 24点(UTC)
风速8节,风向
能见度10公里或以上
少量云层高于2200英尺
阴天层高于2800英尺
短暂存在
从 30日的 16点(UTC)到 30日的 21点(UTC)
能見度: 3000
小雪

TAF: LSZC 301425Z 3015/3024 35008KT 9999 FEW022 OVC028 TEMPO 3016/3021 3000 -SN

超过4000个机场的气象观测和天气预报(METAR&TAF报告)。

可查询的气象台以黄色和红色小点在地图上表示。

将鼠标移到小点上方,可查看气象台名称。

然后点击查看天气观测和预报。

如需切换地图:点击带黑十字的绿色按钮放大地图;点击带横线的绿色按钮缩小地图;或者点击绿色箭头查看邻近地区的地图。


METAR-TAF: